createdAt,value
2023-01-20T00:01:11.246Z,-0.67
2023-01-20T00:03:41.925Z,-0.64
2023-01-20T00:06:08.599Z,-0.65
2023-01-20T00:08:34.713Z,-0.64
2023-01-20T00:11:09.021Z,-0.65
2023-01-20T00:13:35.933Z,-0.60
2023-01-20T00:16:03.347Z,-0.65
2023-01-20T00:18:29.355Z,-0.67
2023-01-20T00:20:55.418Z,-0.68
2023-01-20T00:23:21.486Z,-0.71
2023-01-20T00:25:47.344Z,-0.71
2023-01-20T00:28:13.217Z,-0.65
2023-01-20T00:30:39.063Z,-0.95
2023-01-20T00:33:05.014Z,-0.94
2023-01-20T00:35:30.820Z,-0.96
2023-01-20T00:37:56.588Z,-0.98
2023-01-20T00:40:22.388Z,-0.86
2023-01-20T00:42:48.221Z,-0.92
2023-01-20T00:45:14.326Z,-0.92
2023-01-20T00:47:40.195Z,-0.88
2023-01-20T00:50:06.343Z,-1.02
2023-01-20T00:52:32.254Z,-1.01
2023-01-20T00:54:57.996Z,-0.96
2023-01-20T00:57:23.836Z,-0.79
2023-01-20T00:59:49.635Z,-0.87
2023-01-20T01:02:15.479Z,-0.89
2023-01-20T01:04:41.437Z,-0.87
2023-01-20T01:07:07.200Z,-0.81
2023-01-20T01:09:33.093Z,-0.80
2023-01-20T01:11:58.900Z,-0.69
2023-01-20T01:14:24.865Z,-0.74
2023-01-20T01:16:50.793Z,-0.82
2023-01-20T01:19:19.617Z,-0.80
2023-01-20T01:21:45.474Z,-0.63
2023-01-20T01:24:11.316Z,-0.79
2023-01-20T01:26:37.103Z,-0.85
2023-01-20T01:29:02.878Z,-0.89
2023-01-20T01:31:28.770Z,-0.91
2023-01-20T01:33:54.589Z,-0.89
2023-01-20T01:36:20.384Z,-0.85
2023-01-20T01:38:46.270Z,-0.74
2023-01-20T01:41:25.274Z,-0.78
2023-01-20T01:44:05.488Z,-0.89
2023-01-20T01:46:31.836Z,-0.89
2023-01-20T01:49:02.304Z,-0.84
2023-01-20T01:51:34.706Z,-0.84
2023-01-20T01:54:14.628Z,-0.88
2023-01-20T01:56:42.771Z,-0.82
2023-01-20T01:59:09.126Z,-0.79
2023-01-20T02:01:37.785Z,-0.90
2023-01-20T02:04:15.207Z,-0.85
2023-01-20T02:06:45.037Z,-0.82
2023-01-20T02:09:11.672Z,-0.86
2023-01-20T02:11:43.126Z,-0.86
2023-01-20T02:14:09.066Z,-0.69
2023-01-20T02:17:07.665Z,-0.98
2023-01-20T02:19:54.025Z,-0.93
2023-01-20T02:22:39.043Z,-0.91
2023-01-20T02:25:42.339Z,-0.89
2023-01-20T02:28:53.217Z,-0.99
2023-01-20T02:31:36.270Z,-0.94
2023-01-20T02:34:16.993Z,-0.84
2023-01-20T02:36:58.808Z,-0.73
2023-01-20T02:40:00.201Z,-0.87
2023-01-20T02:42:41.853Z,-0.84
2023-01-20T02:45:31.501Z,-0.78
2023-01-20T02:48:30.801Z,-0.73
2023-01-20T02:51:09.515Z,-0.80
2023-01-20T02:53:48.777Z,-0.82
2023-01-20T02:56:16.123Z,-0.81
2023-01-20T02:58:48.494Z,-0.77
2023-01-20T03:01:24.769Z,-0.75
2023-01-20T03:03:53.400Z,-0.70
2023-01-20T03:06:23.741Z,-0.65
2023-01-20T03:08:52.310Z,-0.71
2023-01-20T03:11:18.853Z,-0.61
2023-01-20T03:14:01.412Z,-0.63
2023-01-20T03:16:28.348Z,-0.77
2023-01-20T03:18:54.692Z,-0.79
2023-01-20T03:21:21.033Z,-0.87
2023-01-20T03:23:56.530Z,-0.87
2023-01-20T03:26:23.253Z,-0.95
2023-01-20T03:28:49.493Z,-0.81
2023-01-20T03:31:21.216Z,-0.91
2023-01-20T03:33:49.581Z,-0.95
2023-01-20T03:36:16.305Z,-1.04
2023-01-20T03:38:44.064Z,-1.14
2023-01-20T03:41:40.216Z,-1.04
2023-01-20T03:44:16.023Z,-1.04
2023-01-20T03:47:08.815Z,-1.02
2023-01-20T03:49:49.902Z,-0.98
2023-01-20T03:52:47.509Z,-1.02
2023-01-20T03:55:24.010Z,-0.94
2023-01-20T03:57:58.075Z,-0.90
2023-01-20T04:00:27.130Z,-0.93
2023-01-20T04:02:58.694Z,-0.86
2023-01-20T04:05:26.277Z,-0.91
2023-01-20T04:07:56.768Z,-1.02
2023-01-20T04:10:24.267Z,-1.01
2023-01-20T04:12:50.199Z,-0.98
2023-01-20T04:15:17.382Z,-0.99
2023-01-20T04:17:44.652Z,-1.13
2023-01-20T04:20:14.469Z,-1.24
2023-01-20T04:23:00.538Z,-1.32
2023-01-20T04:25:29.236Z,-1.16
2023-01-20T04:27:55.042Z,-1.30
2023-01-20T04:30:21.059Z,-1.25
2023-01-20T04:32:46.867Z,-1.16
2023-01-20T04:35:14.682Z,-1.15
2023-01-20T04:37:41.299Z,-1.16
2023-01-20T04:40:08.200Z,-1.37
2023-01-20T04:42:34.082Z,-1.36
2023-01-20T04:45:00.275Z,-1.25
2023-01-20T04:47:29.703Z,-1.53
2023-01-20T04:49:55.509Z,-1.48
2023-01-20T04:52:21.377Z,-1.45
2023-01-20T04:54:47.203Z,-1.43
2023-01-20T04:57:13.058Z,-1.28
2023-01-20T04:59:38.872Z,-1.24
2023-01-20T05:02:04.772Z,-1.21
2023-01-20T05:04:30.558Z,-1.22
2023-01-20T05:06:56.374Z,-1.32
2023-01-20T05:09:22.200Z,-1.18
2023-01-20T05:11:48.010Z,-1.08
2023-01-20T05:14:14.118Z,-1.28
2023-01-20T05:16:39.957Z,-1.13
2023-01-20T05:19:05.848Z,-1.19
2023-01-20T05:21:32.396Z,-1.30
2023-01-20T05:23:58.571Z,-1.18
2023-01-20T05:26:25.463Z,-1.18
2023-01-20T05:28:51.889Z,-1.25
2023-01-20T05:31:17.927Z,-1.31
2023-01-20T05:33:43.761Z,-1.43
2023-01-20T05:36:10.917Z,-1.29
2023-01-20T05:38:36.843Z,-1.41
2023-01-20T05:41:08.012Z,-1.23
2023-01-20T05:43:34.112Z,-1.22
2023-01-20T05:46:00.102Z,-1.13
2023-01-20T05:48:26.092Z,-1.05
2023-01-20T05:50:51.903Z,-1.03
2023-01-20T05:53:18.675Z,-1.03
2023-01-20T05:55:44.849Z,-1.14
2023-01-20T05:58:11.614Z,-1.39
2023-01-20T06:00:37.792Z,-1.33
2023-01-20T06:03:04.004Z,-1.21
2023-01-20T06:05:29.905Z,-1.40
2023-01-20T06:07:56.542Z,-1.25
2023-01-20T06:10:27.384Z,-1.26
2023-01-20T06:12:54.560Z,-1.26
2023-01-20T06:15:24.628Z,-1.11
2023-01-20T06:17:53.984Z,-1.17
2023-01-20T06:20:19.888Z,-1.12
2023-01-20T06:22:46.015Z,-1.09
2023-01-20T06:25:11.861Z,-1.04
2023-01-20T06:27:37.657Z,-1.15
2023-01-20T06:30:05.525Z,-1.13
2023-01-20T06:32:31.339Z,-1.02
2023-01-20T06:34:57.126Z,-0.92
2023-01-20T06:37:22.900Z,-0.92
2023-01-20T06:39:48.687Z,-1.06
2023-01-20T06:42:14.598Z,-1.16
2023-01-20T06:44:40.379Z,-1.08
2023-01-20T06:47:06.189Z,-1.00
2023-01-20T06:49:32.864Z,-1.07
2023-01-20T06:51:59.341Z,-0.94
2023-01-20T06:54:26.443Z,-0.95
2023-01-20T06:56:52.383Z,-0.95
2023-01-20T06:59:18.242Z,-0.89
2023-01-20T07:01:44.546Z,-0.88
2023-01-20T07:04:14.211Z,-1.10
2023-01-20T07:06:41.451Z,-1.20
2023-01-20T07:09:10.088Z,-1.20
2023-01-20T07:11:36.447Z,-1.35
2023-01-20T07:14:05.968Z,-1.29
2023-01-20T07:16:32.717Z,-1.33
2023-01-20T07:18:58.584Z,-1.39
2023-01-20T07:21:26.552Z,-1.40
2023-01-20T07:23:52.995Z,-1.41
2023-01-20T07:26:22.052Z,-1.54
2023-01-20T07:28:48.464Z,-1.32
2023-01-20T07:31:21.618Z,-1.51
2023-01-20T07:33:48.217Z,-1.57
2023-01-20T07:36:14.939Z,-1.57
2023-01-20T07:38:41.164Z,-1.57
2023-01-20T07:41:14.929Z,-1.48
2023-01-20T07:43:42.196Z,-1.59
2023-01-20T07:46:08.270Z,-1.59
2023-01-20T07:48:34.390Z,-1.47
2023-01-20T07:51:04.560Z,-1.43
2023-01-20T07:53:32.308Z,-1.45
2023-01-20T07:56:03.561Z,-1.43
2023-01-20T07:58:29.387Z,-1.36
2023-01-20T08:00:55.353Z,-1.36
2023-01-20T08:03:22.210Z,-1.35
2023-01-20T08:05:48.014Z,-1.48
2023-01-20T08:08:13.849Z,-1.50
2023-01-20T08:10:39.742Z,-1.56
2023-01-20T08:13:05.549Z,-1.54
2023-01-20T08:15:31.862Z,-1.59
2023-01-20T08:18:00.793Z,-1.46
2023-01-20T08:20:26.743Z,-1.41
2023-01-20T08:22:52.607Z,-1.48
2023-01-20T08:25:18.716Z,-1.32
2023-01-20T08:27:47.388Z,-1.36
2023-01-20T08:30:13.355Z,-1.22
2023-01-20T08:32:40.288Z,-1.35
2023-01-20T08:35:06.273Z,-1.18
2023-01-20T08:37:34.716Z,-1.53
2023-01-20T08:40:00.552Z,-1.54
2023-01-20T08:42:26.468Z,-1.55
2023-01-20T08:44:52.839Z,-1.43
2023-01-20T08:47:18.643Z,-1.40
2023-01-20T08:49:44.556Z,-1.41
2023-01-20T08:52:12.222Z,-1.36
2023-01-20T08:54:38.142Z,-1.21
2023-01-20T08:57:03.983Z,-1.13
2023-01-20T08:59:29.841Z,-1.15
2023-01-20T09:01:55.650Z,-1.15
2023-01-20T09:04:21.476Z,-1.28
2023-01-20T09:06:49.617Z,-1.13
2023-01-20T09:09:17.728Z,-1.05
2023-01-20T09:11:49.707Z,-1.20
2023-01-20T09:14:24.777Z,-1.17
2023-01-20T09:16:50.836Z,-1.12
2023-01-20T09:19:17.270Z,-1.25
2023-01-20T09:21:43.669Z,-1.09
2023-01-20T09:24:10.049Z,-1.21
2023-01-20T09:26:40.887Z,-1.17
2023-01-20T09:29:13.608Z,-1.18
2023-01-20T09:31:52.827Z,-1.25
2023-01-20T09:34:23.735Z,-1.08
2023-01-20T09:36:54.462Z,-0.94
2023-01-20T09:39:39.691Z,-1.09
2023-01-20T09:42:35.877Z,-1.16
2023-01-20T09:45:25.506Z,-1.19
2023-01-20T09:48:03.007Z,-1.02
2023-01-20T09:51:11.495Z,-1.12
2023-01-20T09:54:09.088Z,-1.14
2023-01-20T09:56:40.546Z,-1.16
2023-01-20T09:59:12.619Z,-1.15
2023-01-20T10:01:47.085Z,-1.13
2023-01-20T10:04:32.138Z,-1.04
2023-01-20T10:07:23.452Z,-0.97
2023-01-20T10:10:04.954Z,-0.69
2023-01-20T10:12:37.049Z,-0.67
2023-01-20T10:15:24.589Z,-0.82
2023-01-20T10:17:52.336Z,-0.88
2023-01-20T10:20:28.067Z,-0.67
2023-01-20T10:22:56.838Z,-0.50
2023-01-20T10:25:43.519Z,-0.65
2023-01-20T10:28:21.923Z,-0.65
2023-01-20T10:30:47.834Z,-0.53
2023-01-20T10:33:15.476Z,0.06
2023-01-20T10:35:46.285Z,1.16
2023-01-20T10:38:37.856Z,3.01
2023-01-20T10:41:24.154Z,5.65
2023-01-20T10:43:50.024Z,8.75
2023-01-20T10:46:15.863Z,11.15
2023-01-20T10:48:49.334Z,12.88
2023-01-20T10:51:50.197Z,11.78
2023-01-20T10:54:35.913Z,9.14
2023-01-20T10:57:04.132Z,6.99
2023-01-20T10:59:45.171Z,5.58
2023-01-20T11:02:17.190Z,4.99
2023-01-20T11:04:45.096Z,3.83
2023-01-20T11:07:18.334Z,3.73
2023-01-20T11:09:46.733Z,3.08
2023-01-20T11:12:16.822Z,2.86
2023-01-20T11:14:44.455Z,2.09
2023-01-20T11:17:19.703Z,2.08
2023-01-20T11:19:50.440Z,2.19
2023-01-20T11:22:22.452Z,1.81
2023-01-20T11:24:54.278Z,1.66
2023-01-20T11:27:23.813Z,1.12
2023-01-20T11:29:55.680Z,1.02
2023-01-20T11:32:30.805Z,0.66
2023-01-20T11:34:57.291Z,0.53
2023-01-20T11:37:26.248Z,0.41
2023-01-20T11:39:54.850Z,0.36
2023-01-20T11:42:23.221Z,0.38
2023-01-20T11:44:54.463Z,0.07
2023-01-20T11:47:24.632Z,0.39
2023-01-20T11:50:24.592Z,0.09
2023-01-20T11:52:50.519Z,0.50
2023-01-20T11:55:20.727Z,0.64
2023-01-20T11:57:52.293Z,0.36
2023-01-20T12:00:18.101Z,0.26
2023-01-20T12:02:55.701Z,0.05
2023-01-20T12:05:41.171Z,-0.04
2023-01-20T12:08:18.241Z,-0.20
2023-01-20T12:10:45.371Z,-0.31
2023-01-20T12:14:16.372Z,-0.26
2023-01-20T12:16:44.655Z,-0.17
2023-01-20T12:19:17.421Z,-0.33
2023-01-20T12:21:48.422Z,-0.11
2023-01-20T12:25:09.506Z,-0.09
2023-01-20T12:27:57.069Z,-0.20
2023-01-20T12:30:46.965Z,-0.16
2023-01-20T12:33:25.114Z,-0.04
2023-01-20T12:35:53.700Z,0.11
2023-01-20T12:38:23.782Z,0.55
2023-01-20T12:40:54.652Z,2.82
2023-01-20T12:43:26.286Z,4.21
2023-01-20T12:46:13.888Z,5.07
2023-01-20T12:48:45.652Z,6.71
2023-01-20T12:51:34.824Z,6.98
2023-01-20T12:54:15.464Z,5.09
2023-01-20T12:56:59.708Z,5.01
2023-01-20T12:59:40.432Z,4.46
2023-01-20T13:02:11.970Z,3.92
2023-01-20T13:04:58.872Z,3.60
2023-01-20T13:07:47.970Z,4.70
2023-01-20T13:10:38.481Z,4.03
2023-01-20T13:13:17.140Z,3.97
2023-01-20T13:16:12.904Z,3.66
2023-01-20T13:19:06.762Z,2.54
2023-01-20T13:21:34.270Z,1.81
2023-01-20T13:24:02.239Z,1.71
2023-01-20T13:26:32.309Z,2.14
2023-01-20T13:28:59.811Z,1.82
2023-01-20T13:31:43.278Z,1.81
2023-01-20T13:34:21.333Z,2.02
2023-01-20T13:37:06.653Z,1.32
2023-01-20T13:39:45.162Z,0.87
2023-01-20T13:42:35.583Z,0.78
2023-01-20T13:45:13.763Z,0.42
2023-01-20T13:47:53.424Z,0.54
2023-01-20T13:50:35.887Z,0.36
2023-01-20T13:53:01.692Z,0.32
2023-01-20T13:55:40.748Z,0.52
2023-01-20T13:58:13.482Z,0.36
2023-01-20T14:00:39.378Z,0.26
2023-01-20T14:03:27.412Z,0.11
2023-01-20T14:05:56.413Z,0.01
2023-01-20T14:08:23.937Z,-0.07
2023-01-20T14:10:49.881Z,-0.16
2023-01-20T14:13:23.822Z,-0.15
2023-01-20T14:15:54.907Z,-0.30
2023-01-20T14:18:24.371Z,-0.23
2023-01-20T14:21:18.658Z,-0.04
2023-01-20T14:23:47.643Z,-0.28
2023-01-20T14:26:21.132Z,-0.25
2023-01-20T14:28:57.715Z,-0.24
2023-01-20T14:31:34.511Z,-0.26
2023-01-20T14:34:17.773Z,-0.24
2023-01-20T14:36:44.195Z,-0.26
2023-01-20T14:39:18.497Z,-0.31
2023-01-20T14:41:47.629Z,-0.36
2023-01-20T14:44:22.357Z,-0.43
2023-01-20T14:46:53.327Z,-0.43
2023-01-20T14:49:21.499Z,-0.43
2023-01-20T14:51:49.911Z,-0.45
2023-01-20T14:54:45.045Z,-0.48
2023-01-20T14:57:33.443Z,-0.37
2023-01-20T15:00:14.840Z,-0.53
2023-01-20T15:02:57.945Z,-0.55
2023-01-20T15:05:36.251Z,-0.49
2023-01-20T15:08:11.340Z,-0.62
2023-01-20T15:10:41.042Z,-0.51
2023-01-20T15:13:26.976Z,-0.51
2023-01-20T15:16:13.355Z,-0.53
2023-01-20T15:18:39.575Z,-0.53
2023-01-20T15:21:27.008Z,-0.73
2023-01-20T15:23:53.392Z,-0.85
2023-01-20T15:26:30.120Z,-0.99
2023-01-20T15:28:57.555Z,-0.92
2023-01-20T15:31:23.935Z,-0.99
2023-01-20T15:33:49.751Z,-1.02
2023-01-20T15:36:36.337Z,-0.97
2023-01-20T15:39:02.639Z,-1.11
2023-01-20T15:41:28.553Z,-0.93
2023-01-20T15:43:54.488Z,-0.88
2023-01-20T15:46:20.422Z,-0.87
2023-01-20T15:48:46.286Z,-0.91
2023-01-20T15:51:15.307Z,-0.98
2023-01-20T15:53:41.314Z,-0.97
2023-01-20T15:56:34.565Z,-0.86
2023-01-20T15:59:00.974Z,-1.02
2023-01-20T16:01:28.499Z,-1.11
2023-01-20T16:03:57.944Z,-1.03
2023-01-20T16:06:30.272Z,-0.88
2023-01-20T16:08:56.420Z,-0.95
2023-01-20T16:11:22.313Z,-1.07
2023-01-20T16:13:48.251Z,-1.13
2023-01-20T16:16:18.539Z,-1.06
2023-01-20T16:18:45.639Z,-1.06
2023-01-20T16:21:13.372Z,-1.10
2023-01-20T16:23:39.788Z,-1.18
2023-01-20T16:26:24.572Z,-1.18
2023-01-20T16:28:51.943Z,-1.22
2023-01-20T16:31:18.597Z,-1.22
2023-01-20T16:33:44.757Z,-1.30
2023-01-20T16:36:16.441Z,-1.23
2023-01-20T16:38:43.122Z,-1.26
2023-01-20T16:41:23.442Z,-1.25
2023-01-20T16:43:50.761Z,-1.31
2023-01-20T16:46:22.506Z,-1.36
2023-01-20T16:48:48.527Z,-1.45
2023-01-20T16:51:17.190Z,-1.44
2023-01-20T16:53:43.324Z,-1.32
2023-01-20T16:56:25.585Z,-1.34
2023-01-20T16:58:53.233Z,-1.35
2023-01-20T17:01:22.896Z,-1.45
2023-01-20T17:03:50.672Z,-1.51
2023-01-20T17:06:19.912Z,-1.48
2023-01-20T17:08:48.008Z,-1.41
2023-01-20T17:11:22.450Z,-1.49
2023-01-20T17:13:48.769Z,-1.42
2023-01-20T17:16:15.145Z,-1.40
2023-01-20T17:18:44.459Z,-1.52
2023-01-20T17:21:11.611Z,-1.58
2023-01-20T17:23:37.619Z,-1.65
2023-01-20T17:26:05.221Z,-1.55
2023-01-20T17:28:31.387Z,-1.72
2023-01-20T17:31:05.541Z,-1.57
2023-01-20T17:33:31.803Z,-1.61
2023-01-20T17:36:00.184Z,-1.68
2023-01-20T17:38:28.000Z,-1.63
2023-01-20T17:40:54.410Z,-1.70
2023-01-20T17:43:20.690Z,-1.74
2023-01-20T17:45:46.559Z,-1.84
2023-01-20T17:48:12.345Z,-2.09
2023-01-20T17:50:38.374Z,-2.03
2023-01-20T17:53:04.278Z,-1.93
2023-01-20T17:55:30.102Z,-2.00
2023-01-20T17:57:56.114Z,-1.95
2023-01-20T18:00:22.083Z,-1.98
2023-01-20T18:02:47.932Z,-1.83
2023-01-20T18:05:13.865Z,-2.12
2023-01-20T18:07:39.765Z,-2.02
2023-01-20T18:10:05.714Z,-2.08
2023-01-20T18:12:31.573Z,-2.06
2023-01-20T18:14:57.996Z,-2.05
2023-01-20T18:17:24.429Z,-2.14
2023-01-20T18:19:50.336Z,-2.09
2023-01-20T18:22:16.956Z,-2.01
2023-01-20T18:24:43.111Z,-2.01
2023-01-20T18:27:09.122Z,-2.04
2023-01-20T18:29:35.452Z,-2.08
2023-01-20T18:32:02.063Z,-2.05
2023-01-20T18:34:27.926Z,-2.06
2023-01-20T18:36:54.694Z,-2.10
2023-01-20T18:39:22.945Z,-2.02
2023-01-20T18:41:50.132Z,-2.04
2023-01-20T18:44:16.504Z,-2.06
2023-01-20T18:46:42.464Z,-2.07
2023-01-20T18:49:12.121Z,-2.32
2023-01-20T18:51:38.001Z,-2.37
2023-01-20T18:54:06.951Z,-2.46
2023-01-20T18:56:33.699Z,-2.47
2023-01-20T18:59:01.567Z,-2.39
2023-01-20T19:01:32.962Z,-2.27
2023-01-20T19:04:03.589Z,-2.37
2023-01-20T19:06:33.602Z,-2.22
2023-01-20T19:09:00.018Z,-2.14
2023-01-20T19:11:31.697Z,-2.20
2023-01-20T19:13:58.736Z,-2.11
2023-01-20T19:16:27.301Z,-2.02
2023-01-20T19:18:55.946Z,-2.09
2023-01-20T19:21:24.172Z,-2.19
2023-01-20T19:23:52.134Z,-2.21
2023-01-20T19:26:19.000Z,-2.26
2023-01-20T19:29:01.842Z,-2.18
2023-01-20T19:31:30.168Z,-2.25
2023-01-20T19:33:56.464Z,-2.23
2023-01-20T19:36:23.211Z,-2.31
2023-01-20T19:38:51.325Z,-2.44
2023-01-20T19:41:26.999Z,-2.32
2023-01-20T19:43:56.885Z,-2.38
2023-01-20T19:46:25.424Z,-2.48
2023-01-20T19:48:53.437Z,-2.47
2023-01-20T19:51:20.035Z,-2.57
2023-01-20T19:53:46.675Z,-2.56
2023-01-20T19:56:14.978Z,-2.51
2023-01-20T19:58:42.031Z,-2.43
2023-01-20T20:01:17.468Z,-2.51
2023-01-20T20:03:44.222Z,-2.50
2023-01-20T20:06:28.297Z,-2.58
2023-01-20T20:09:06.089Z,-2.68
2023-01-20T20:11:33.067Z,-2.70
2023-01-20T20:14:01.790Z,-2.76
2023-01-20T20:16:30.547Z,-2.78
2023-01-20T20:18:57.456Z,-2.78
2023-01-20T20:21:24.756Z,-2.80
2023-01-20T20:23:53.037Z,-2.77
2023-01-20T20:26:20.569Z,-2.65
2023-01-20T20:28:46.931Z,-2.72
2023-01-20T20:31:13.428Z,-2.83
2023-01-20T20:33:39.591Z,-2.77
2023-01-20T20:36:07.116Z,-2.77
2023-01-20T20:38:36.298Z,-2.78
2023-01-20T20:41:07.498Z,-2.92
2023-01-20T20:43:34.857Z,-2.86
2023-01-20T20:46:02.541Z,-2.86
2023-01-20T20:48:29.447Z,-2.87
2023-01-20T20:50:55.782Z,-2.97
2023-01-20T20:53:22.116Z,-2.93
2023-01-20T20:55:48.457Z,-2.94
2023-01-20T20:58:14.671Z,-2.93
2023-01-20T21:00:40.773Z,-2.88
2023-01-20T21:03:07.087Z,-2.95
2023-01-20T21:05:33.866Z,-2.92
2023-01-20T21:08:00.369Z,-2.93
2023-01-20T21:10:26.710Z,-3.11
2023-01-20T21:12:52.781Z,-3.21
2023-01-20T21:15:19.120Z,-2.92
2023-01-20T21:17:45.201Z,-3.02
2023-01-20T21:20:11.717Z,-3.02
2023-01-20T21:22:38.343Z,-2.97
2023-01-20T21:25:05.538Z,-3.14
2023-01-20T21:27:32.501Z,-3.01
2023-01-20T21:29:58.370Z,-3.08
2023-01-20T21:32:24.475Z,-3.13
2023-01-20T21:34:50.308Z,-3.06
2023-01-20T21:37:18.313Z,-3.13
2023-01-20T21:39:44.266Z,-3.12
2023-01-20T21:42:10.176Z,-3.08
2023-01-20T21:44:36.015Z,-3.01
2023-01-20T21:47:04.139Z,-3.09
2023-01-20T21:49:48.705Z,-3.00
2023-01-20T21:52:35.523Z,-3.03
2023-01-20T21:55:02.389Z,-3.07
2023-01-20T21:57:28.562Z,-3.07
2023-01-20T21:59:55.267Z,-3.12
2023-01-20T22:02:27.324Z,-3.09
2023-01-20T22:04:53.406Z,-3.13
2023-01-20T22:07:19.629Z,-3.25
2023-01-20T22:09:45.512Z,-3.21
2023-01-20T22:12:12.099Z,-3.05
2023-01-20T22:14:38.449Z,-3.21
2023-01-20T22:17:05.872Z,-3.28
2023-01-20T22:19:31.786Z,-3.19
2023-01-20T22:21:59.375Z,-3.24
2023-01-20T22:24:25.697Z,-3.36
2023-01-20T22:26:51.706Z,-3.42
2023-01-20T22:29:18.328Z,-3.41
2023-01-20T22:31:45.117Z,-3.44
2023-01-20T22:34:11.318Z,-3.30
2023-01-20T22:36:37.669Z,-3.38
2023-01-20T22:39:05.908Z,-3.42
2023-01-20T22:41:31.875Z,-3.51
2023-01-20T22:43:57.852Z,-3.37
2023-01-20T22:46:25.651Z,-3.47
2023-01-20T22:48:52.008Z,-3.41
2023-01-20T22:51:21.333Z,-3.39
2023-01-20T22:53:47.274Z,-3.47
2023-01-20T22:56:15.870Z,-3.55
2023-01-20T22:58:42.879Z,-3.50
2023-01-20T23:01:19.429Z,-3.74
2023-01-20T23:03:45.658Z,-3.68
2023-01-20T23:06:13.340Z,-3.63
2023-01-20T23:08:39.885Z,-3.61
2023-01-20T23:11:13.888Z,-3.63
2023-01-20T23:13:40.354Z,-3.58
2023-01-20T23:16:10.245Z,-3.72
2023-01-20T23:18:36.147Z,-3.71
2023-01-20T23:21:02.077Z,-3.84
2023-01-20T23:23:28.214Z,-3.85
2023-01-20T23:26:06.008Z,-3.80
2023-01-20T23:28:32.778Z,-3.75
2023-01-20T23:31:03.643Z,-3.85
2023-01-20T23:33:30.296Z,-3.80
2023-01-20T23:36:05.854Z,-3.84
2023-01-20T23:38:31.522Z,-3.76
2023-01-20T23:40:57.392Z,-3.81
2023-01-20T23:43:23.607Z,-3.75
2023-01-20T23:45:49.499Z,-3.77
2023-01-20T23:48:15.515Z,-3.75
2023-01-20T23:50:41.329Z,-3.74
2023-01-20T23:53:07.107Z,-3.78
2023-01-20T23:55:32.946Z,-3.80
2023-01-20T23:57:58.774Z,-3.64
